• Join FlightAware (Why Join?)
  • Login
  • US Flag 
10:45AM EDT


 

Airport Tracker/Info


-or-


 

Live Flight TrackerFlight Track Log ✈ SWA407 ✈ 16-Apr-2013 ✈ KMCO - KATL

Flight Track Log - Related Links

Times and Time Zones

All times are in EDT time to prevent confusion due to time zone crossing. See the SWA407 flight status page for this flight to view local times or setup timezone preferences in your user account.

Time Position Orientation Groundspeed Altitude Reporting Facility
EDT Latitude Longitude Course Direction KTS MPH feet Rate Location/Type
03:00PM 28.4333 -81.3000 41° Northeast 165 190 500  Level Orlando TRACON
03:00PM 28.4500 -81.2833 41° Northeast 159 183 1,900 3,420 Climbing Orlando TRACON
03:01PM 28.5000 -81.2667 16° North 212 244 5,700 3,780 Climbing Orlando TRACON
03:02PM 28.5500 -81.2833 344° North 220 253 9,500 3,000 Climbing Orlando TRACON
03:05PM 28.7400 -81.3747 337° Northwest 324 373 15,600 2,820 Climbing Jacksonville Center
03:06PM 28.8406 -81.4089 343° North 347 399 18,900 3,180 Climbing Jacksonville Center
03:07PM 28.9411 -81.4428 344° North 363 418 22,000 2,940 Climbing Jacksonville Center
03:08PM 29.0458 -81.4794 343° North 382 440 24,800 2,520 Climbing Jacksonville Center
03:09PM 29.1528 -81.5158 343° North 392 451 27,100 2,220 Climbing Jacksonville Center
03:10PM 29.2681 -81.5594 342° North 400 460 29,300 2,520 Climbing Jacksonville Center
03:11PM 29.3831 -81.6008 343° North 421 484 32,200 2,700 Climbing Jacksonville Center
03:12PM 29.4919 -81.6375 344° North 421 484 34,800 1,380 Climbing Jacksonville Center
03:13PM 29.6011 -81.6744 344° North 416 479 35,000 60 Climbing Jacksonville Center
03:14PM 29.7097 -81.7064 346° North 410 472 35,000  Level Jacksonville Center
03:15PM 29.8208 -81.7411 345° North 405 466 35,000  Level Jacksonville Center
03:16PM 29.9317 -81.7733 346° North 405 466 35,000  Level Jacksonville Center
03:17PM 30.0406 -81.8056 346° North 400 460 35,000  Level Jacksonville Center
03:18PM 30.1514 -81.8381 346° North 400 460 35,000  Level Jacksonville Center
03:19PM 30.2603 -81.8706 346° North 400 460 35,000  Level Jacksonville Center
03:20PM 30.3714 -81.9056 345° North 400 460 35,000  Level Jacksonville Center
03:21PM 30.4800 -81.9381 346° North 405 466 35,000  Level Jacksonville Center
03:22PM 30.5828 -81.9756 343° North 410 472 35,000  Level Jacksonville Center
03:23PM 30.6914 -82.0083 345° North 410 472 35,000  Level Jacksonville Center
03:24PM 30.8025 -82.0436 345° North 410 472 35,000  Level Jacksonville Center
03:25PM 30.9133 -82.0767 346° North 410 472 35,000  Level Jacksonville Center
03:26PM 31.0242 -82.1119 345° North 410 472 35,000  Level Jacksonville Center
03:27PM 31.1267 -82.1622 337° Northwest 405 466 35,000  Level Jacksonville Center
03:28PM 31.2314 -82.2122 338° Northwest 405 466 35,000  Level Jacksonville Center
03:29PM 31.3381 -82.2603 339° North 405 466 35,000  Level Jacksonville Center
03:30PM 31.4428 -82.3081 339° North 405 466 35,000  Level Jacksonville Center
03:31PM 31.5600 -82.3586 340° North 405 466 35,000  Level Jacksonville Center
03:32PM 31.7217 -82.4347 338° Northwest 392 451 35,000  Level Atlanta Center
03:33PM 31.8244 -82.4844 338° Northwest 392 451 35,000  Level Atlanta Center
03:34PM 31.9272 -82.5339 338° Northwest 397 457 35,000  Level Atlanta Center
03:35PM 32.0181 -82.6108 324° Northwest 397 457 35,000 -120 Level Atlanta Center
03:36PM 32.1003 -82.6978 318° Northwest 397 457 34,800 -600 Descending Atlanta Center
03:37PM 32.1867 -82.7775 322° Northwest 397 457 33,900 -960 Descending Atlanta Center
03:38PM 32.2711 -82.8597 321° Northwest 392 451 32,900 -1,020 Descending Atlanta Center
03:39PM 32.3575 -82.9447 320° Northwest 392 451 31,900 -960 Descending Atlanta Center
03:40PM 32.4458 -83.0369 319° Northwest 402 463 31,000 -900 Descending Atlanta Center
03:41PM 32.5383 -83.1272 321° Northwest 413 475 30,100 -960 Descending Atlanta Center
03:42PM 32.6289 -83.2175 320° Northwest 418 481 29,100 -960 Descending Atlanta Center
03:43PM 32.7214 -83.3106 320° Northwest 418 481 28,200 -960 Descending Atlanta Center
03:44PM 32.8117 -83.4011 320° Northwest 418 481 27,200 -1,500 Descending Atlanta Center
03:45PM 32.8997 -83.4897 320° Northwest 423 487 25,300 -2,400 Descending Atlanta Center
03:46PM 32.9897 -83.5781 321° Northwest 418 481 22,400 -3,000 Descending Atlanta Center
03:47PM 33.0736 -83.6694 318° Northwest 413 475 19,400 -3,240 Descending Atlanta Center
03:48PM 33.1667 -83.7500 324° Northwest 402 463 16,100 -3,000 Descending Atlanta TRACON
03:49PM 33.2333 -83.8333 314° West 397 457 13,900 -1,740 Descending Atlanta TRACON
03:50PM 33.3000 -83.9333 309° West 389 448 12,900 -960 Descending Atlanta TRACON
03:51PM 33.3667 -84.0333 309° West 383 441 12,000 -540 Descending Atlanta TRACON
03:52PM 33.4167 -84.1167 306° West 327 376 11,900 -60 Descending Atlanta TRACON
03:53PM 33.4667 -84.2000 306° West 288 331 11,900  Level Atlanta TRACON
03:54PM 33.5167 -84.2667 312° West 256 295 11,900 -360 Level Atlanta TRACON
03:55PM 33.5500 -84.3333 301° West 241 277 11,300 -1,080 Descending Atlanta TRACON
03:56PM 33.5500 -84.4167 270° West 245 282 9,800 -1,440 Descending Atlanta TRACON
03:57PM 33.5500 -84.4833 270° West 238 274 8,500 -1,380 Descending Atlanta TRACON
03:58PM 33.5500 -84.5667 270° West 224 258 7,100 -1,440 Descending Atlanta TRACON
03:59PM 33.5500 -84.6500 270° West 226 260 5,600 -1,500 Descending Atlanta TRACON
04:00PM 33.6000 -84.6667 344° North 236 272 4,100 -1,080 Descending Atlanta TRACON
04:01PM 33.6333 -84.6167 51° Northeast 200 230 3,500 -780 Descending Atlanta TRACON
04:02PM 33.6333 -84.5500 90° East 192 221 2,600 -960 Descending Atlanta TRACON
04:03PM 33.6333 -84.5000 90° East 161 185 1,700 -1,020 Descending Atlanta TRACON
04:05PM 33.6367 -84.4279 64° Northeast  Level Estimated
04:12PM 33.6367 -84.4279 64° Northeast  Level Estimated
04:13PM 33.6367 -84.4279 64° Northeast  Level Estimated